createdAt,value
2023-02-12T00:00:05.848Z,11.77
2023-02-12T00:02:32.605Z,11.60
2023-02-12T00:04:59.336Z,10.47
2023-02-12T00:07:26.146Z,11.37
2023-02-12T00:09:52.848Z,12.67
2023-02-12T00:12:20.233Z,11.90
2023-02-12T00:14:47.103Z,11.00
2023-02-12T00:17:13.741Z,10.53
2023-02-12T00:19:40.419Z,11.03
2023-02-12T00:22:07.115Z,11.03
2023-02-12T00:24:33.822Z,11.20
2023-02-12T00:27:00.484Z,10.23
2023-02-12T00:29:27.901Z,10.23
2023-02-12T00:31:54.630Z,9.73
2023-02-12T00:34:21.302Z,12.00
2023-02-12T00:36:48.006Z,11.13
2023-02-12T00:39:14.663Z,9.37
2023-02-12T00:41:41.650Z,9.57
2023-02-12T00:44:08.270Z,7.67
2023-02-12T00:46:35.639Z,10.13
2023-02-12T00:49:02.468Z,10.70
2023-02-12T00:51:29.247Z,10.90
2023-02-12T00:53:56.265Z,8.80
2023-02-12T00:56:22.869Z,9.90
2023-02-12T00:58:50.014Z,13.30
2023-02-12T01:01:16.914Z,9.10
2023-02-12T01:03:44.326Z,9.67
2023-02-12T01:06:11.024Z,9.57
2023-02-12T01:08:37.813Z,9.27
2023-02-12T01:11:05.984Z,8.93
2023-02-12T01:13:34.388Z,9.27
2023-02-12T01:16:07.853Z,8.10
2023-02-12T01:18:35.200Z,8.73
2023-02-12T01:21:07.757Z,9.03
2023-02-12T01:23:34.390Z,9.30
2023-02-12T01:26:01.328Z,7.87
2023-02-12T01:28:28.252Z,7.73
2023-02-12T01:30:55.149Z,8.10
2023-02-12T01:33:21.845Z,7.83
2023-02-12T01:35:48.498Z,9.13
2023-02-12T01:38:15.808Z,9.73
2023-02-12T01:40:42.789Z,9.00
2023-02-12T01:43:12.582Z,8.20
2023-02-12T01:45:53.393Z,8.53
2023-02-12T01:48:25.579Z,8.30
2023-02-12T01:50:54.123Z,8.57
2023-02-12T01:53:24.970Z,9.50
2023-02-12T01:55:56.644Z,8.33
2023-02-12T01:58:24.931Z,9.33
2023-02-12T02:00:52.113Z,7.87
2023-02-12T02:03:19.057Z,7.57
2023-02-12T02:05:54.643Z,8.40
2023-02-12T02:08:23.121Z,9.27
2023-02-12T02:10:50.029Z,9.00
2023-02-12T02:13:35.363Z,9.10
2023-02-12T02:16:09.893Z,8.67
2023-02-12T02:18:43.438Z,7.77
2023-02-12T02:21:48.936Z,8.87
2023-02-12T02:24:50.686Z,8.20
2023-02-12T02:27:26.753Z,8.03
2023-02-12T02:30:22.682Z,8.00
2023-02-12T02:32:58.931Z,8.53
2023-02-12T02:35:32.151Z,8.23
2023-02-12T02:38:12.287Z,7.63
2023-02-12T02:40:46.493Z,6.97
2023-02-12T02:43:18.925Z,7.23
2023-02-12T02:45:50.701Z,7.30
2023-02-12T02:48:21.947Z,7.53
2023-02-12T02:50:52.710Z,6.67
2023-02-12T02:53:24.389Z,6.97
2023-02-12T02:55:54.261Z,8.23
2023-02-12T02:58:30.222Z,7.70
2023-02-12T03:01:03.122Z,7.27
2023-02-12T03:03:33.979Z,7.43
2023-02-12T03:06:04.869Z,9.03
2023-02-12T03:08:37.356Z,7.60
2023-02-12T03:11:10.142Z,7.87
2023-02-12T03:13:42.886Z,8.37
2023-02-12T03:16:14.429Z,6.80
2023-02-12T03:18:44.499Z,8.10
2023-02-12T03:21:14.960Z,8.40
2023-02-12T03:23:47.202Z,7.47
2023-02-12T03:26:20.210Z,8.17
2023-02-12T03:28:47.140Z,7.53
2023-02-12T03:31:24.787Z,10.03
2023-02-12T03:33:59.941Z,9.47
2023-02-12T03:36:35.764Z,9.87
2023-02-12T03:39:09.636Z,8.13
2023-02-12T03:41:43.179Z,9.07
2023-02-12T03:44:18.440Z,7.80
2023-02-12T03:46:53.645Z,8.97
2023-02-12T03:49:24.258Z,9.20
2023-02-12T03:51:50.961Z,10.20
2023-02-12T03:54:19.807Z,9.50
2023-02-12T03:56:51.753Z,8.37
2023-02-12T03:59:18.684Z,9.70
2023-02-12T04:01:47.517Z,10.17
2023-02-12T04:04:14.585Z,9.97
2023-02-12T04:06:41.744Z,10.43
2023-02-12T04:09:10.955Z,10.67
2023-02-12T04:11:49.344Z,9.20
2023-02-12T04:14:24.533Z,9.27
2023-02-12T04:16:59.854Z,8.80
2023-02-12T04:19:36.080Z,9.03
2023-02-12T04:22:14.932Z,10.73
2023-02-12T04:24:49.578Z,9.17
2023-02-12T04:27:22.676Z,8.93
2023-02-12T04:29:54.349Z,7.50
2023-02-12T04:32:27.225Z,9.53
2023-02-12T04:34:59.108Z,9.63
2023-02-12T04:37:31.207Z,8.90
2023-02-12T04:39:59.535Z,9.93
2023-02-12T04:42:26.509Z,8.37
2023-02-12T04:44:53.125Z,9.50
2023-02-12T04:47:19.779Z,9.57
2023-02-12T04:49:47.137Z,9.80
2023-02-12T04:52:13.778Z,10.23
2023-02-12T04:54:40.422Z,9.73
2023-02-12T04:57:07.085Z,10.33
2023-02-12T04:59:33.730Z,8.83
2023-02-12T05:02:00.748Z,9.67
2023-02-12T05:04:27.698Z,8.93
2023-02-12T05:06:54.930Z,8.77
2023-02-12T05:09:22.603Z,8.17
2023-02-12T05:11:49.698Z,9.07
2023-02-12T05:14:16.356Z,7.77
2023-02-12T05:16:43.299Z,8.00
2023-02-12T05:19:10.380Z,8.83
2023-02-12T05:21:37.809Z,9.00
2023-02-12T05:24:06.083Z,7.77
2023-02-12T05:26:32.889Z,10.43
2023-02-12T05:28:59.528Z,8.83
2023-02-12T05:31:26.546Z,9.37
2023-02-12T05:33:53.285Z,9.20
2023-02-12T05:36:23.008Z,7.70
2023-02-12T05:38:50.192Z,7.40
2023-02-12T05:41:20.108Z,8.47
2023-02-12T05:43:49.635Z,7.60
2023-02-12T05:46:17.859Z,8.00
2023-02-12T05:48:44.696Z,7.97
2023-02-12T05:51:13.194Z,7.93
2023-02-12T05:53:40.892Z,7.67
2023-02-12T05:56:09.938Z,7.13
2023-02-12T05:58:37.250Z,7.53
2023-02-12T06:01:08.410Z,7.73
2023-02-12T06:03:35.084Z,7.97
2023-02-12T06:06:01.708Z,8.10
2023-02-12T06:08:28.333Z,9.03
2023-02-12T06:10:54.956Z,7.40
2023-02-12T06:13:21.611Z,8.63
2023-02-12T06:15:48.883Z,6.97
2023-02-12T06:18:15.560Z,7.57
2023-02-12T06:20:42.219Z,6.73
2023-02-12T06:23:08.829Z,7.73
2023-02-12T06:25:35.493Z,7.40
2023-02-12T06:28:02.133Z,9.33
2023-02-12T06:30:30.995Z,10.93
2023-02-12T06:32:58.303Z,8.23
2023-02-12T06:35:24.993Z,9.17
2023-02-12T06:37:51.606Z,7.67
2023-02-12T06:40:19.001Z,8.23
2023-02-12T06:42:45.660Z,7.87
2023-02-12T06:45:12.313Z,9.80
2023-02-12T06:47:38.941Z,8.73
2023-02-12T06:50:07.540Z,8.27
2023-02-12T06:52:34.463Z,7.27
2023-02-12T06:55:01.112Z,7.50
2023-02-12T06:57:29.329Z,10.67
2023-02-12T06:59:56.238Z,8.50
2023-02-12T07:02:23.412Z,8.40
2023-02-12T07:04:50.087Z,9.17
2023-02-12T07:07:17.387Z,7.83
2023-02-12T07:09:44.356Z,6.43
2023-02-12T07:12:11.006Z,8.03
2023-02-12T07:14:37.709Z,7.00
2023-02-12T07:17:04.781Z,6.13
2023-02-12T07:19:31.554Z,7.57
2023-02-12T07:21:58.487Z,6.00
2023-02-12T07:24:25.880Z,8.33
2023-02-12T07:26:52.616Z,7.50
2023-02-12T07:29:19.265Z,7.03
2023-02-12T07:31:46.086Z,7.03
2023-02-12T07:34:12.743Z,7.77
2023-02-12T07:36:39.907Z,6.53
2023-02-12T07:39:06.575Z,7.93
2023-02-12T07:41:35.406Z,8.10
2023-02-12T07:44:06.751Z,7.47
2023-02-12T07:46:35.386Z,7.03
2023-02-12T07:49:05.217Z,6.50
2023-02-12T07:51:33.005Z,6.87
2023-02-12T07:54:00.297Z,8.03
2023-02-12T07:56:30.220Z,7.80
2023-02-12T07:58:59.186Z,7.43
2023-02-12T08:01:28.594Z,6.47
2023-02-12T08:03:58.937Z,7.67
2023-02-12T08:06:27.203Z,6.80
2023-02-12T08:08:55.411Z,7.40
2023-02-12T08:11:22.620Z,6.03
2023-02-12T08:13:49.379Z,6.03
2023-02-12T08:16:20.586Z,7.87
2023-02-12T08:18:47.808Z,8.13
2023-02-12T08:21:18.110Z,9.27
2023-02-12T08:23:45.817Z,6.73
2023-02-12T08:26:14.886Z,6.73
2023-02-12T08:28:43.479Z,7.80
2023-02-12T08:31:13.064Z,7.93
2023-02-12T08:33:40.409Z,7.97
2023-02-12T08:36:10.924Z,7.20
2023-02-12T08:38:38.742Z,10.20
2023-02-12T08:41:07.509Z,8.10
2023-02-12T08:43:35.065Z,6.10
2023-02-12T08:46:03.135Z,7.50
2023-02-12T08:48:29.874Z,5.90
2023-02-12T08:51:02.832Z,6.93
2023-02-12T08:53:29.678Z,6.60
2023-02-12T08:55:56.721Z,6.80
2023-02-12T08:58:23.942Z,5.23
2023-02-12T09:00:50.916Z,5.93
2023-02-12T09:03:17.983Z,8.13
2023-02-12T09:05:44.677Z,6.70
2023-02-12T09:08:12.009Z,7.67
2023-02-12T09:10:39.721Z,6.93
2023-02-12T09:13:06.434Z,6.73
2023-02-12T09:15:36.813Z,6.37
2023-02-12T09:18:03.791Z,7.37
2023-02-12T09:20:30.853Z,6.93
2023-02-12T09:22:58.468Z,6.73
2023-02-12T09:25:26.351Z,7.20
2023-02-12T09:27:54.633Z,7.33
2023-02-12T09:30:21.784Z,6.53
2023-02-12T09:32:48.493Z,6.83
2023-02-12T09:35:15.307Z,7.07
2023-02-12T09:37:44.101Z,7.93
2023-02-12T09:40:19.096Z,7.43
2023-02-12T09:43:02.854Z,8.30
2023-02-12T09:45:35.308Z,8.10
2023-02-12T09:48:15.439Z,8.13
2023-02-12T09:50:49.779Z,7.07
2023-02-12T09:53:19.604Z,6.37
2023-02-12T09:55:46.630Z,5.97
2023-02-12T09:58:18.620Z,5.40
2023-02-12T10:00:45.358Z,5.97
2023-02-12T10:03:15.522Z,7.07
2023-02-12T10:05:48.470Z,6.70
2023-02-12T10:08:37.698Z,5.70
2023-02-12T10:11:29.690Z,5.80
2023-02-12T10:14:14.357Z,6.60
2023-02-12T10:16:51.450Z,6.07
2023-02-12T10:19:38.731Z,8.27
2023-02-12T10:22:16.963Z,10.93
2023-02-12T10:25:02.456Z,7.57
2023-02-12T10:27:37.601Z,8.30
2023-02-12T10:30:16.805Z,9.07
2023-02-12T10:32:45.829Z,7.50
2023-02-12T10:35:15.032Z,8.80
2023-02-12T10:37:46.326Z,10.17
2023-02-12T10:40:19.560Z,9.43
2023-02-12T10:42:49.172Z,8.83
2023-02-12T10:45:18.762Z,10.07
2023-02-12T10:47:46.892Z,12.30
2023-02-12T10:50:27.992Z,8.43
2023-02-12T10:53:00.119Z,7.53
2023-02-12T10:55:29.781Z,8.50
2023-02-12T10:57:57.802Z,6.87
2023-02-12T11:00:29.768Z,8.30
2023-02-12T11:03:02.420Z,8.10
2023-02-12T11:05:31.800Z,9.40
2023-02-12T11:07:58.780Z,8.53
2023-02-12T11:10:31.794Z,11.17
2023-02-12T11:12:59.367Z,10.77
2023-02-12T11:15:30.686Z,10.63
2023-02-12T11:18:00.596Z,12.30
2023-02-12T11:20:35.121Z,12.70
2023-02-12T11:23:07.153Z,11.00
2023-02-12T11:25:35.894Z,9.50
2023-02-12T11:28:13.710Z,10.47
2023-02-12T11:30:51.684Z,9.10
2023-02-12T11:33:27.731Z,11.37
2023-02-12T11:35:57.028Z,9.77
2023-02-12T11:38:26.960Z,10.87
2023-02-12T11:40:57.976Z,9.87
2023-02-12T11:43:26.194Z,9.57
2023-02-12T11:45:55.709Z,10.23
2023-02-12T11:48:25.733Z,10.63
2023-02-12T11:50:54.671Z,10.63
2023-02-12T11:53:25.531Z,10.33
2023-02-12T11:55:58.073Z,8.23
2023-02-12T11:58:26.463Z,9.53
2023-02-12T12:01:00.525Z,8.37
2023-02-12T12:03:30.128Z,8.73
2023-02-12T12:06:04.728Z,9.97
2023-02-12T12:08:38.152Z,9.97
2023-02-12T12:11:10.680Z,9.70
2023-02-12T12:13:42.982Z,8.50
2023-02-12T12:16:31.301Z,9.97
2023-02-12T12:19:22.509Z,9.20
2023-02-12T12:21:56.878Z,9.57
2023-02-12T12:24:30.931Z,9.53
2023-02-12T12:27:04.257Z,8.23
2023-02-12T12:29:44.763Z,8.90
2023-02-12T12:32:14.920Z,9.20
2023-02-12T12:34:41.764Z,9.50
2023-02-12T12:37:30.764Z,8.53
2023-02-12T12:40:09.973Z,9.73
2023-02-12T12:43:10.925Z,9.00
2023-02-12T12:46:24.254Z,8.57
2023-02-12T12:49:17.536Z,7.87
2023-02-12T12:52:14.642Z,9.60
2023-02-12T12:54:55.418Z,9.37
2023-02-12T12:57:39.306Z,8.40
2023-02-12T13:00:31.780Z,10.03
2023-02-12T13:03:26.793Z,10.67
2023-02-12T13:06:32.498Z,9.60
2023-02-12T13:09:22.757Z,10.50
2023-02-12T13:12:05.419Z,9.73
2023-02-12T13:14:42.793Z,9.77
2023-02-12T13:17:22.859Z,9.13
2023-02-12T13:20:00.701Z,9.47
2023-02-12T13:22:35.560Z,8.27
2023-02-12T13:25:14.961Z,7.67
2023-02-12T13:27:44.571Z,7.47
2023-02-12T13:30:20.174Z,7.47
2023-02-12T13:32:50.256Z,7.60
2023-02-12T13:35:20.477Z,7.33
2023-02-12T13:37:51.126Z,7.60
2023-02-12T13:40:22.102Z,7.37
2023-02-12T13:42:55.428Z,7.60
2023-02-12T13:45:34.098Z,6.53
2023-02-12T13:48:22.588Z,8.07
2023-02-12T13:51:01.082Z,6.93
2023-02-12T13:53:37.764Z,6.53
2023-02-12T13:56:10.966Z,7.20
2023-02-12T13:58:48.768Z,5.17
2023-02-12T14:01:37.824Z,6.23
2023-02-12T14:04:29.452Z,7.30
2023-02-12T14:07:01.371Z,5.13
2023-02-12T14:09:38.572Z,4.70
2023-02-12T14:12:08.190Z,6.17
2023-02-12T14:14:39.237Z,5.80
2023-02-12T14:17:41.391Z,5.90
2023-02-12T14:20:20.649Z,5.97
2023-02-12T14:23:25.812Z,4.77
2023-02-12T14:26:05.869Z,4.17
2023-02-12T14:28:49.144Z,5.40
2023-02-12T14:31:45.979Z,5.33
2023-02-12T14:34:43.123Z,4.73
2023-02-12T14:37:17.721Z,5.40
2023-02-12T14:39:46.417Z,6.10
2023-02-12T14:42:44.345Z,4.90
2023-02-12T14:45:34.536Z,3.73
2023-02-12T14:48:06.478Z,5.10
2023-02-12T14:50:40.878Z,4.70
2023-02-12T14:53:27.374Z,4.60
2023-02-12T14:55:55.585Z,5.17
2023-02-12T14:58:25.867Z,5.43
2023-02-12T15:00:56.253Z,5.47
2023-02-12T15:03:29.849Z,5.90
2023-02-12T15:06:07.397Z,5.00
2023-02-12T15:08:45.480Z,7.03
2023-02-12T15:11:23.314Z,6.53
2023-02-12T15:14:00.039Z,6.43
2023-02-12T15:16:42.239Z,6.43
2023-02-12T15:19:24.441Z,6.33
2023-02-12T15:21:53.735Z,7.33
2023-02-12T15:24:22.753Z,8.43
2023-02-12T15:26:52.224Z,6.90
2023-02-12T15:29:23.818Z,6.93
2023-02-12T15:31:53.176Z,7.10
2023-02-12T15:34:23.751Z,6.03
2023-02-12T15:36:51.109Z,6.73
2023-02-12T15:39:21.090Z,6.67
2023-02-12T15:41:48.812Z,6.87
2023-02-12T15:44:22.652Z,7.83
2023-02-12T15:47:01.762Z,6.60
2023-02-12T15:49:32.180Z,7.13
2023-02-12T15:52:05.106Z,6.60
2023-02-12T15:54:33.436Z,8.20
2023-02-12T15:57:02.763Z,8.40
2023-02-12T15:59:30.446Z,7.70
2023-02-12T16:02:01.994Z,7.47
2023-02-12T16:04:31.427Z,8.03
2023-02-12T16:06:59.106Z,7.90
2023-02-12T16:09:30.056Z,7.90
2023-02-12T16:11:59.261Z,7.50
2023-02-12T16:14:30.787Z,7.73
2023-02-12T16:16:59.321Z,6.37
2023-02-12T16:19:27.713Z,7.20
2023-02-12T16:21:59.228Z,5.87
2023-02-12T16:24:29.482Z,5.63
2023-02-12T16:26:57.302Z,5.83
2023-02-12T16:29:24.284Z,6.13
2023-02-12T16:31:58.211Z,5.77
2023-02-12T16:34:32.099Z,5.73
2023-02-12T16:36:58.830Z,4.80
2023-02-12T16:40:03.102Z,5.70
2023-02-12T16:42:29.770Z,6.53
2023-02-12T16:44:56.470Z,4.87
2023-02-12T16:47:25.503Z,5.23
2023-02-12T16:49:58.243Z,5.03
2023-02-12T16:52:34.748Z,5.40
2023-02-12T16:55:01.850Z,5.67
2023-02-12T16:57:28.577Z,6.23
2023-02-12T16:59:55.267Z,4.80
2023-02-12T17:02:21.907Z,4.80
2023-02-12T17:04:48.821Z,4.97
2023-02-12T17:07:21.814Z,5.27
2023-02-12T17:09:48.748Z,4.53
2023-02-12T17:12:15.498Z,4.97
2023-02-12T17:14:42.149Z,4.00
2023-02-12T17:17:08.860Z,4.57
2023-02-12T17:19:35.504Z,4.57
2023-02-12T17:22:03.315Z,6.53
2023-02-12T17:24:33.553Z,5.63
2023-02-12T17:27:00.899Z,5.13
2023-02-12T17:29:27.841Z,4.63
2023-02-12T17:31:55.205Z,4.63
2023-02-12T17:34:22.422Z,4.13
2023-02-12T17:36:49.664Z,4.90
2023-02-12T17:39:17.354Z,4.00
2023-02-12T17:41:45.042Z,4.60
2023-02-12T17:44:13.249Z,4.17
2023-02-12T17:46:39.903Z,4.40
2023-02-12T17:49:06.664Z,4.90
2023-02-12T17:51:33.599Z,4.40
2023-02-12T17:54:00.257Z,5.13
2023-02-12T17:56:27.907Z,4.53
2023-02-12T17:58:57.232Z,4.97
2023-02-12T18:01:25.632Z,4.57
2023-02-12T18:03:55.479Z,5.77
2023-02-12T18:06:25.060Z,5.10
2023-02-12T18:08:52.577Z,5.40
2023-02-12T18:11:19.692Z,5.63
2023-02-12T18:13:46.940Z,7.33
2023-02-12T18:16:14.762Z,7.30
2023-02-12T18:18:43.687Z,8.37
2023-02-12T18:21:15.686Z,9.30
2023-02-12T18:23:44.520Z,9.00
2023-02-12T18:26:14.731Z,7.60
2023-02-12T18:28:42.436Z,9.10
2023-02-12T18:31:12.606Z,8.70
2023-02-12T18:33:40.417Z,8.30
2023-02-12T18:36:09.272Z,10.53
2023-02-12T18:38:37.788Z,10.77
2023-02-12T18:41:09.695Z,10.00
2023-02-12T18:43:37.446Z,12.00
2023-02-12T18:46:09.207Z,10.83
2023-02-12T18:48:36.564Z,11.90
2023-02-12T18:51:06.481Z,11.67
2023-02-12T18:53:34.814Z,9.57
2023-02-12T18:56:05.020Z,9.73
2023-02-12T18:58:31.919Z,9.50
2023-02-12T19:00:59.095Z,11.20
2023-02-12T19:03:26.101Z,11.43
2023-02-12T19:05:53.742Z,11.13
2023-02-12T19:08:21.995Z,10.87
2023-02-12T19:10:48.829Z,9.97
2023-02-12T19:13:16.225Z,12.17
2023-02-12T19:15:46.937Z,10.80
2023-02-12T19:18:14.598Z,11.13
2023-02-12T19:20:42.577Z,12.37
2023-02-12T19:23:09.246Z,13.50
2023-02-12T19:25:42.075Z,10.97
2023-02-12T19:28:08.823Z,10.70
2023-02-12T19:30:36.570Z,11.17
2023-02-12T19:33:03.531Z,9.23
2023-02-12T19:35:30.325Z,11.60
2023-02-12T19:37:57.303Z,10.90
2023-02-12T19:40:23.984Z,8.83
2023-02-12T19:42:51.302Z,9.80
2023-02-12T19:45:18.258Z,11.40
2023-02-12T19:47:45.239Z,12.53
2023-02-12T19:50:12.011Z,11.87
2023-02-12T19:52:38.773Z,10.67
2023-02-12T19:55:06.536Z,12.23
2023-02-12T19:57:35.995Z,11.47
2023-02-12T20:00:04.932Z,11.30
2023-02-12T20:02:32.526Z,10.30
2023-02-12T20:04:59.619Z,11.63
2023-02-12T20:07:27.514Z,11.50
2023-02-12T20:09:55.063Z,13.07
2023-02-12T20:12:21.862Z,13.67
2023-02-12T20:14:51.372Z,13.20
2023-02-12T20:17:19.551Z,13.33
2023-02-12T20:19:46.570Z,12.90
2023-02-12T20:22:14.038Z,13.37
2023-02-12T20:24:41.322Z,14.53
2023-02-12T20:27:11.343Z,13.47
2023-02-12T20:29:38.097Z,14.23
2023-02-12T20:32:05.812Z,13.47
2023-02-12T20:34:45.748Z,13.63
2023-02-12T20:37:18.518Z,13.67
2023-02-12T20:39:45.639Z,14.10
2023-02-12T20:42:12.342Z,14.43
2023-02-12T20:44:39.103Z,14.93
2023-02-12T20:47:06.013Z,14.43
2023-02-12T20:49:33.522Z,15.10
2023-02-12T20:52:00.497Z,15.27
2023-02-12T20:54:27.284Z,16.00
2023-02-12T20:56:54.341Z,16.23
2023-02-12T20:59:21.219Z,15.33
2023-02-12T21:01:48.044Z,14.93
2023-02-12T21:04:18.873Z,15.40
2023-02-12T21:06:47.596Z,15.43
2023-02-12T21:09:14.802Z,15.03
2023-02-12T21:11:44.902Z,16.93
2023-02-12T21:14:24.231Z,17.57
2023-02-12T21:16:52.252Z,16.67
2023-02-12T21:19:19.207Z,17.80
2023-02-12T21:21:47.113Z,16.97
2023-02-12T21:24:15.521Z,17.50
2023-02-12T21:26:42.389Z,20.10
2023-02-12T21:29:09.003Z,19.23
2023-02-12T21:31:40.993Z,20.47
2023-02-12T21:34:11.019Z,22.43
2023-02-12T21:36:39.281Z,22.20
2023-02-12T21:39:08.829Z,22.43
2023-02-12T21:41:37.452Z,21.20
2023-02-12T21:44:06.572Z,21.97
2023-02-12T21:46:34.502Z,23.37
2023-02-12T21:49:01.440Z,25.73
2023-02-12T21:51:29.882Z,24.03
2023-02-12T21:54:00.459Z,24.33
2023-02-12T21:56:28.438Z,23.30
2023-02-12T21:59:00.900Z,24.07
2023-02-12T22:01:31.641Z,19.93
2023-02-12T22:03:59.967Z,25.70
2023-02-12T22:06:27.184Z,23.23
2023-02-12T22:08:54.932Z,24.43
2023-02-12T22:11:24.032Z,26.80
2023-02-12T22:13:53.614Z,26.03
2023-02-12T22:16:22.219Z,26.40
2023-02-12T22:18:52.778Z,27.73
2023-02-12T22:21:19.804Z,24.00
2023-02-12T22:23:46.585Z,28.27
2023-02-12T22:26:15.429Z,26.90
2023-02-12T22:28:43.821Z,26.13
2023-02-12T22:31:13.532Z,26.93
2023-02-12T22:33:40.614Z,27.27
2023-02-12T22:36:09.067Z,28.63
2023-02-12T22:38:37.181Z,27.43
2023-02-12T22:41:05.393Z,27.87
2023-02-12T22:43:39.188Z,26.87
2023-02-12T22:46:06.699Z,28.77
2023-02-12T22:48:34.952Z,28.13
2023-02-12T22:51:08.603Z,29.07
2023-02-12T22:53:35.677Z,28.13
2023-02-12T22:56:03.307Z,28.83
2023-02-12T22:58:30.536Z,28.50
2023-02-12T23:00:57.483Z,29.23
2023-02-12T23:03:24.265Z,27.90
2023-02-12T23:05:51.677Z,29.07
2023-02-12T23:08:18.300Z,28.63
2023-02-12T23:10:44.961Z,29.17
2023-02-12T23:13:18.584Z,27.57
2023-02-12T23:15:55.165Z,28.90
2023-02-12T23:18:22.290Z,28.57
2023-02-12T23:20:49.508Z,28.03
2023-02-12T23:23:17.407Z,27.00
2023-02-12T23:25:44.158Z,26.93
2023-02-12T23:28:10.886Z,25.07
2023-02-12T23:30:37.649Z,27.63
2023-02-12T23:33:04.292Z,27.27
2023-02-12T23:35:30.911Z,27.80
2023-02-12T23:37:57.548Z,22.83
2023-02-12T23:40:24.883Z,23.33
2023-02-12T23:42:51.520Z,24.00
2023-02-12T23:45:18.157Z,21.90
2023-02-12T23:47:44.887Z,22.13
2023-02-12T23:50:11.560Z,23.33
2023-02-12T23:52:38.500Z,22.77
2023-02-12T23:55:06.145Z,23.70
2023-02-12T23:57:33.436Z,23.50
